Time;durP1;ratioP1;P1;durP2;ratioP2;P2;SDS_P1;SDS_P2;PMS_P1;PMS_P2;Temp;Humidity;BMP_temperature;BMP_pressure;BME280_temperature;BME280_humidity;BME280_pressure;Samples;Min_cycle;Max_cycle;Signal;HPM_P1;HPM_P2
2022/12/10 00:01:32;;;;;;;54.70;20.90;;;;;;;-142.75;100.00;78208.41;4981380;28;20038;-67
2022/12/10 00:03:58;;;;;;;51.60;19.20;;;;;;;-142.75;100.00;78210.38;4981854;28;20033;-67
2022/12/10 00:06:27;;;;;;;57.30;20.10;;;;;;;-142.75;100.00;78210.38;4980872;28;20030;-67
2022/12/10 00:08:52;;;;;;;57.80;21.77;;;;;;;-142.75;100.00;78234.00;4982454;28;20034;-69
2022/12/10 00:11:20;;;;;;;54.50;18.58;;;;;;;-142.75;100.00;78222.19;4982498;28;20030;-69
2022/12/10 00:13:46;;;;;;;52.83;20.43;;;;;;;-142.75;100.00;78220.22;4981113;28;20041;-67
2022/12/10 00:16:14;;;;;;;58.87;22.07;;;;;;;-142.75;100.00;78230.06;4981356;28;20264;-68
2022/12/10 00:18:40;;;;;;;57.07;20.30;;;;;;;-142.75;100.00;78232.03;4982819;28;20035;-67
2022/12/10 00:21:17;;;;;;;56.60;20.08;;;;;;;-142.75;100.00;78216.28;4982215;28;20029;-67
2022/12/10 00:23:43;;;;;;;52.60;20.47;;;;;;;-142.75;100.00;78214.31;4983271;28;20163;-69
2022/12/10 00:26:12;;;;;;;63.38;23.23;;;;;;;-142.75;100.00;78204.47;4984385;28;20038;-67
2022/12/10 00:28:39;;;;;;;60.10;22.17;;;;;;;-142.75;100.00;78218.25;4983685;28;20023;-66
2022/12/10 00:31:07;;;;;;;54.73;20.80;;;;;;;-142.75;100.00;78216.28;4984421;28;20080;-67
2022/12/10 00:33:33;;;;;;;68.13;21.67;;;;;;;-142.75;100.00;78232.03;4982792;28;20030;-67
2022/12/10 00:36:11;;;;;;;60.05;21.88;;;;;;;-142.75;100.00;78214.31;4984816;28;20061;-64
2022/12/10 00:38:37;;;;;;;56.83;21.80;;;;;;;-142.75;100.00;78232.03;4983286;28;20512;-67
2022/12/10 00:41:03;;;;;;;62.67;22.87;;;;;;;-142.75;100.00;78232.03;4984472;28;20645;-66
2022/12/10 00:43:29;;;;;;;51.25;20.40;;;;;;;-142.75;100.00;78247.78;4983946;28;20034;-65
2022/12/10 00:45:54;;;;;;;58.28;21.38;;;;;;;-142.75;100.00;78243.84;4986941;28;20027;-66
2022/12/10 00:48:20;;;;;;;53.97;21.25;;;;;;;-142.75;100.00;78235.97;4983913;28;21359;-67
2022/12/10 00:50:58;;;;;;;56.33;20.67;;;;;;;-142.75;100.00;78249.75;4983833;28;20030;-67
2022/12/10 00:53:24;;;;;;;53.97;21.23;;;;;;;-142.75;100.00;78245.81;4982936;28;20045;-67
2022/12/10 00:55:50;;;;;;;59.77;22.03;;;;;;;-142.75;100.00;78247.78;4984997;28;20058;-68
2022/12/10 00:58:15;;;;;;;;;;;;;;;-142.75;100.00;78235.97;4984252;28;20026;-66
2022/12/10 01:00:41;;;;;;;60.13;21.90;;;;;;;-142.75;100.00;78273.38;4984891;28;19913;-67
2022/12/10 01:03:06;;;;;;;52.78;20.50;;;;;;;-142.75;100.00;78263.53;4984309;28;20819;-66
2022/12/10 01:05:31;;;;;;;56.95;21.02;;;;;;;-142.75;100.00;78255.66;4986851;28;20041;-64
2022/12/10 01:07:57;;;;;;;57.90;22.50;;;;;;;-142.75;100.00;78259.59;4983979;28;20074;-67
2022/12/10 01:10:22;;;;;;;62.25;23.17;;;;;;;-142.75;100.00;78273.38;4984321;28;20502;-66
2022/12/10 01:12:47;;;;;;;70.60;23.60;;;;;;;-142.75;100.00;78283.22;4983920;28;20140;-68
2022/12/10 01:15:13;;;;;;;57.03;20.90;;;;;;;-142.75;100.00;78281.25;5001065;28;20498;-67
2022/12/10 01:17:38;;;;;;;57.85;21.63;;;;;;;-142.75;100.00;78295.06;5018482;28;20133;-67
2022/12/10 01:20:04;;;;;;;64.63;22.15;;;;;;;-142.75;100.00;78267.47;5003892;28;20030;-67
2022/12/10 01:22:29;;;;;;;56.65;22.15;;;;;;;-142.75;100.00;78275.34;5005190;28;20060;-68
2022/12/10 01:24:55;;;;;;;67.60;21.83;;;;;;;-142.75;100.00;78273.38;4983596;28;20825;-66
2022/12/10 01:27:20;;;;;;;60.65;22.70;;;;;;;-142.75;100.00;78275.34;4983725;28;20065;-68
2022/12/10 01:29:45;;;;;;;53.28;21.88;;;;;;;-142.75;100.00;78287.16;4999069;28;20038;-67
2022/12/10 01:32:11;;;;;;;69.72;25.33;;;;;;;-142.75;100.00;78287.16;5004010;28;20032;-68
2022/12/10 01:34:36;;;;;;;60.80;22.20;;;;;;;-142.75;100.00;78275.34;4984562;28;20030;-67
2022/12/10 01:37:01;;;;;;;69.90;24.00;;;;;;;-142.75;100.00;78271.41;4992120;28;20927;-66
2022/12/10 01:39:27;;;;;;;54.55;22.02;;;;;;;-142.75;100.00;78302.94;4982402;28;20423;-67
2022/12/10 01:41:55;;;;;;;57.67;24.20;;;;;;;-142.75;100.00;78285.19;4984493;28;20038;-67
2022/12/10 01:44:20;;;;;;;61.37;22.87;;;;;;;-142.75;100.00;78285.19;4982366;28;20022;-65
2022/12/10 01:46:49;;;;;;;52.92;21.25;;;;;;;-142.75;100.00;78281.25;4982341;28;20041;-67
2022/12/10 01:49:17;;;;;;;55.90;21.30;;;;;;;-142.75;100.00;78318.69;4982523;28;20026;-67
2022/12/10 01:51:45;;;;;;;58.67;23.40;;;;;;;-142.75;100.00;78330.50;4983824;28;20034;-67
2022/12/10 01:54:15;;;;;;;59.60;21.60;;;;;;;-142.75;100.00;78320.66;4983909;28;20571;-68
2022/12/10 01:56:44;;;;;;;57.23;21.77;;;;;;;-142.75;100.00;78318.69;4983082;28;20092;-68
2022/12/10 01:59:10;;;;;;;58.33;21.53;;;;;;;-142.75;100.00;78302.94;4982201;28;20053;-67
2022/12/10 02:01:47;;;;;;;;;;;;;;;-142.75;100.00;78306.88;4984695;28;20121;-66
2022/12/10 02:04:50;;;;;;;62.67;21.10;;;;;;;-142.75;100.00;78324.59;5003404;28;20031;-68
2022/12/10 02:07:47;;;;;;;58.10;22.37;;;;;;;-142.75;100.00;78297.00;5002247;28;20042;-67
2022/12/10 02:10:21;;;;;;;52.78;19.38;;;;;;;-142.75;100.00;78287.16;5001309;28;20029;-68
2022/12/10 02:12:57;;;;;;;49.97;19.70;;;;;;;-142.75;100.00;78271.41;4992338;28;20072;-66
2022/12/10 02:15:32;;;;;;;59.75;19.00;;;;;;;-142.75;100.00;78267.47;4986749;28;20030;-67
2022/12/10 02:18:08;;;;;;;54.70;21.93;;;;;;;-142.75;100.00;78271.41;4994733;28;20537;-67
2022/12/10 02:20:50;;;;;;;63.05;21.85;;;;;;;-142.75;100.00;78253.69;4983222;28;20065;-66
2022/12/10 02:23:26;;;;;;;58.77;20.13;;;;;;;-142.75;100.00;78261.56;4981866;28;20030;-68
2022/12/10 02:26:01;;;;;;;54.65;19.45;;;;;;;-142.75;100.00;78273.38;4982486;28;20026;-66
2022/12/10 02:28:54;;;;;;;56.33;21.93;;;;;;;-142.75;100.00;78279.28;4981733;28;20508;-67
2022/12/10 02:31:25;;;;;;;52.13;19.23;;;;;;;-142.75;100.00;78275.34;4990746;28;20034;-67
2022/12/10 02:33:55;;;;;;;51.90;19.70;;;;;;;-142.75;100.00;78273.38;4992891;28;20034;-67
2022/12/10 02:36:24;;;;;;;58.60;19.80;;;;;;;-142.75;100.00;78265.50;4982721;28;20337;-64
2022/12/10 02:38:51;;;;;;;44.50;17.37;;;;;;;-142.75;100.00;78267.47;4982631;28;20034;-67
2022/12/10 02:41:26;;;;;;;81.37;18.57;;;;;;;-142.75;100.00;78308.84;4981839;28;20038;-67
2022/12/10 02:43:54;;;;;;;75.33;16.53;;;;;;;-142.75;100.00;78306.88;4982701;28;20034;-68
2022/12/10 02:46:22;;;;;;;47.30;17.30;;;;;;;-142.75;100.00;78302.94;4989176;28;20037;-67
2022/12/10 02:48:51;;;;;;;44.03;17.73;;;;;;;-142.75;100.00;78302.94;5001689;28;20068;-67
2022/12/10 02:51:17;;;;;;;46.53;17.53;;;;;;;-142.75;100.00;78306.88;4993655;28;20794;-66
2022/12/10 02:53:45;;;;;;;40.03;16.77;;;;;;;-142.75;100.00;78297.00;4989331;28;20073;-67
2022/12/10 02:56:20;;;;;;;68.50;18.83;;;;;;;-142.75;100.00;78320.66;5002452;28;20484;-67
2022/12/10 02:58:51;;;;;;;48.93;16.27;;;;;;;-142.75;100.00;78322.63;4988234;28;20030;-66
2022/12/10 03:01:41;;;;;;;50.07;18.10;;;;;;;-142.75;100.00;78326.56;4996143;28;20048;-69
2022/12/10 03:04:33;;;;;;;101.37;17.07;;;;;;;-142.75;100.00;78348.22;4990650;28;20340;-67
2022/12/10 03:07:03;;;;;;;67.80;17.00;;;;;;;-142.75;100.00;78354.13;5001629;28;20622;-67
2022/12/10 03:09:38;;;;;;;57.63;16.87;;;;;;;-142.75;100.00;78350.19;5001893;28;20029;-66
2022/12/10 03:12:14;;;;;;;53.10;15.90;;;;;;;-142.75;100.00;78354.13;4999517;28;20033;-65
2022/12/10 03:14:41;;;;;;;54.45;16.73;;;;;;;-142.75;100.00;78338.38;4990659;28;20125;-68
2022/12/10 03:17:06;;;;;;;51.77;17.23;;;;;;;-142.75;100.00;78332.47;5001711;28;20079;-67
2022/12/10 03:19:42;;;;;;;53.95;16.27;;;;;;;-142.75;100.00;78340.34;4993206;28;20030;-66
2022/12/10 03:22:11;;;;;;;30.02;12.85;;;;;;;-142.75;100.00;78322.63;4982255;28;20030;-68
2022/12/10 03:24:37;;;;;;;54.00;16.87;;;;;;;-142.75;100.00;78328.53;4980620;28;20081;-70
2022/12/10 03:27:06;;;;;;;63.92;16.75;;;;;;;-142.75;100.00;78354.13;4996898;28;20038;-68
2022/12/10 03:29:37;;;;;;;65.33;15.30;;;;;;;-142.75;100.00;78354.13;5001185;28;20026;-66
2022/12/10 03:32:04;;;;;;;92.70;15.23;;;;;;;-142.75;100.00;78375.78;5001629;28;20060;-66
2022/12/10 03:34:30;;;;;;;57.47;16.57;;;;;;;-142.75;100.00;78389.56;5001124;28;20135;-67
2022/12/10 03:36:56;;;;;;;51.67;16.27;;;;;;;-142.75;100.00;78369.88;5000733;28;20037;-69
2022/12/10 03:39:22;;;;;;;44.03;14.43;;;;;;;-142.75;100.00;78338.38;5000848;28;20025;-67
2022/12/10 03:41:48;;;;;;;52.20;14.13;;;;;;;-142.75;100.00;78362.00;5000003;28;20045;-70
2022/12/10 03:44:13;;;;;;;44.40;14.63;;;;;;;-142.75;100.00;78350.19;5001623;28;20034;-68
2022/12/10 03:46:38;;;;;;;44.45;16.98;;;;;;;-142.75;100.00;78344.28;5000370;28;20040;-68
2022/12/10 03:49:04;;;;;;;55.83;16.42;;;;;;;-142.75;100.00;78342.31;5001255;28;20045;-68
2022/12/10 03:51:29;;;;;;;40.00;14.85;;;;;;;-142.75;100.00;78346.25;4999858;28;20036;-67
2022/12/10 03:53:55;;;;;;;51.72;15.02;;;;;;;-142.75;100.00;78362.00;5001473;28;20041;-69
2022/12/10 03:56:21;;;;;;;49.47;14.88;;;;;;;-142.75;100.00;78362.00;4998976;28;20045;-68
2022/12/10 03:58:47;;;;;;;96.43;18.20;;;;;;;-142.75;100.00;78362.00;5000563;28;20030;-69
2022/12/10 04:01:13;;;;;;;58.10;15.40;;;;;;;-142.75;100.00;78373.81;4999743;28;20030;-69
2022/12/10 04:03:40;;;;;;;43.45;15.18;;;;;;;-142.75;100.00;78354.13;5000999;28;20021;-67
2022/12/10 04:06:14;;;;;;;63.07;15.87;;;;;;;-142.75;100.00;78362.00;5000865;28;20137;-68
2022/12/10 04:08:39;;;;;;;44.37;17.40;;;;;;;-142.75;100.00;78354.13;4999994;28;20048;-68
2022/12/10 04:11:07;;;;;;;42.60;15.10;;;;;;;-142.75;100.00;78324.59;4999669;28;20041;-67
2022/12/10 04:16:26;;;;;;;47.23;16.80;;;;;;;-142.75;100.00;78310.81;5001318;28;20506;-68
2022/12/10 04:18:53;;;;;;;47.67;17.23;;;;;;;-142.75;100.00;78302.94;5000690;28;20577;-67
2022/12/10 04:26:52;;;;;;;44.80;17.20;;;;;;;-142.75;100.00;78279.28;5000599;28;20096;-67
2022/12/10 04:29:28;;;;;;;46.97;17.63;;;;;;;-142.75;100.00;78273.38;4999224;28;20479;-68
2022/12/10 04:31:54;;;;;;;35.35;12.75;;;;;;;-142.75;100.00;78271.41;5001013;28;20030;-69
2022/12/10 04:34:20;;;;;;;;;;;;;;;-142.75;100.00;78259.59;5001033;28;20451;-67
2022/12/10 04:36:46;;;;;;;44.93;16.20;;;;;;;-142.75;100.00;78271.41;5000225;28;19960;-68
2022/12/10 04:39:12;;;;;;;;;;;;;;;-142.75;100.00;78285.19;5001119;28;20167;-67
2022/12/10 04:41:42;;;;;;;40.30;16.20;;;;;;;-142.75;100.00;78281.25;5000738;28;19917;-67
2022/12/10 04:44:08;;;;;;;36.17;14.63;;;;;;;-142.75;100.00;78291.09;4980056;28;20034;-67
2022/12/10 04:46:34;;;;;;;38.50;14.93;;;;;;;-142.75;100.00;78289.13;4980530;28;20137;-66
2022/12/10 04:48:59;;;;;;;42.25;15.48;;;;;;;-142.75;100.00;78289.13;4979765;28;20484;-66
2022/12/10 04:51:25;;;;;;;34.25;15.13;;;;;;;-142.75;100.00;78289.13;4979542;28;20034;-68
2022/12/10 04:53:50;;;;;;;36.90;15.35;;;;;;;-142.75;100.00;78293.06;4979829;28;20034;-69
2022/12/10 04:56:15;;;;;;;44.22;16.02;;;;;;;-142.75;100.00;78275.34;4984090;28;20061;-68
2022/12/10 04:58:41;;;;;;;37.28;16.27;;;;;;;-142.75;100.00;78283.22;4986209;28;20104;-68
2022/12/10 05:01:09;;;;;;;33.00;15.68;;;;;;;-142.75;100.00;78261.56;4981291;28;20570;-70
2022/12/10 05:03:35;;;;;;;38.73;16.30;;;;;;;-142.75;100.00;78273.38;4981302;28;20034;-68
2022/12/10 05:06:11;;;;;;;36.40;16.60;;;;;;;-142.75;100.00;78281.25;4981433;28;20113;-69
2022/12/10 05:08:38;;;;;;;45.85;15.18;;;;;;;-142.75;100.00;78283.22;4999043;28;20034;-68
2022/12/10 05:11:25;;;;;;;32.80;15.10;;;;;;;-142.75;100.00;78293.06;5004216;28;20045;-70
2022/12/10 05:13:52;;;;;;;42.90;14.77;;;;;;;-142.75;100.00;78283.22;5005332;28;20049;-68
2022/12/10 05:16:19;;;;;;;35.80;15.43;;;;;;;-142.75;100.00;78295.06;5003805;28;20045;-68
2022/12/10 05:18:45;;;;;;;38.93;16.20;;;;;;;-142.75;100.00;78291.09;5003307;28;20109;-68
2022/12/10 05:21:13;;;;;;;41.47;14.70;;;;;;;-142.75;100.00;78271.41;5002613;28;20049;-68
2022/12/10 05:23:41;;;;;;;37.23;14.60;;;;;;;-142.75;100.00;78261.56;5002288;28;20037;-70
2022/12/10 05:26:16;;;;;;;74.10;15.67;;;;;;;-142.75;100.00;78300.97;5003620;28;20029;-68
2022/12/10 05:28:54;;;;;;;44.70;15.10;;;;;;;-142.75;100.00;78299.00;5002723;28;20286;-68
2022/12/10 05:31:20;;;;;;;39.97;16.23;;;;;;;-142.75;100.00;78308.84;5002469;28;20026;-68
2022/12/10 05:33:46;;;;;;;67.90;24.40;;;;;;;-142.75;100.00;78310.81;5003742;28;20040;-68
2022/12/10 05:36:13;;;;;;;36.92;17.08;;;;;;;-142.75;100.00;78322.63;5003527;28;20025;-70
2022/12/10 05:38:40;;;;;;;42.47;17.03;;;;;;;-142.75;100.00;78308.84;5002734;28;20061;-68
2022/12/10 05:41:13;;;;;;;37.03;16.20;;;;;;;-142.75;100.00;78293.06;5003437;28;20037;-68
2022/12/10 05:43:39;;;;;;;48.30;16.33;;;;;;;-142.75;100.00;78299.00;5003449;28;20037;-67
2022/12/10 05:46:07;;;;;;;44.97;21.52;;;;;;;-142.75;100.00;78308.84;5003666;28;20772;-70
2022/12/10 05:48:33;;;;;;;47.30;15.67;;;;;;;-142.75;100.00;78318.69;5002276;28;20038;-70
2022/12/10 05:51:04;;;;;;;70.03;16.13;;;;;;;-142.75;100.00;78346.25;5003654;28;20400;-68
2022/12/10 05:53:29;;;;;;;66.60;17.27;;;;;;;-142.75;100.00;78334.44;4992830;28;20057;-67
2022/12/10 05:56:03;;;;;;;41.45;16.20;;;;;;;-142.75;100.00;78362.00;4983599;28;20137;-64
2022/12/10 05:58:29;;;;;;;46.70;15.63;;;;;;;-142.75;100.00;78354.13;4982683;28;20420;-65
2022/12/10 06:00:55;;;;;;;;;;;;;;;-142.75;100.00;78350.19;4984453;28;20077;-68
2022/12/10 06:03:20;;;;;;;57.80;14.13;;;;;;;-142.75;100.00;78369.88;4996400;28;19917;-67
2022/12/10 06:05:45;;;;;;;49.85;15.52;;;;;;;-142.75;100.00;78387.59;4998516;28;20031;-67
2022/12/10 06:08:10;;;;;;;61.58;16.10;;;;;;;-142.75;100.00;78377.75;4982695;28;20037;-67
2022/12/10 06:10:36;;;;;;;52.38;16.15;;;;;;;-142.75;100.00;78375.78;4982339;28;20072;-69
2022/12/10 06:13:03;;;;;;;43.65;16.00;;;;;;;-142.75;100.00;78369.88;4982789;28;20109;-67
2022/12/10 06:15:29;;;;;;;42.67;15.43;;;;;;;-142.75;100.00;78373.81;4983347;28;20781;-68
2022/12/10 06:17:55;;;;;;;51.47;16.05;;;;;;;-142.75;100.00;78358.06;4982430;28;20034;-69
2022/12/10 06:20:21;;;;;;;42.77;15.37;;;;;;;-142.75;100.00;78371.84;4982551;28;20105;-67
2022/12/10 06:22:46;;;;;;;;;;;;;;;-142.75;100.00;78362.00;4984063;28;20065;-70
2022/12/10 06:25:13;;;;;;;37.67;14.50;;;;;;;-142.75;100.00;78383.66;4980957;28;20017;-68
2022/12/10 06:27:38;;;;;;;;;;;;;;;-142.75;100.00;78391.53;4988511;28;20050;-69
2022/12/10 06:30:03;;;;;;;70.77;15.40;;;;;;;-142.75;100.00;78405.34;5000833;28;20060;-68
2022/12/10 06:32:29;;;;;;;51.03;14.43;;;;;;;-142.75;100.00;78403.38;5002578;28;20034;-68
2022/12/10 06:34:54;;;;;;;47.97;14.63;;;;;;;-142.75;100.00;78413.22;5002913;28;20547;-68
2022/12/10 06:37:20;;;;;;;43.22;16.65;;;;;;;-142.75;100.00;78409.28;5001837;28;20030;-68
2022/12/10 06:39:45;;;;;;;41.95;14.93;;;;;;;-142.75;100.00;78401.38;4997028;28;20026;-67
2022/12/10 06:42:10;;;;;;;50.28;16.88;;;;;;;-142.75;100.00;78385.63;4991215;28;20038;-66
2022/12/10 06:44:36;;;;;;;56.10;16.55;;;;;;;-142.75;100.00;78397.44;4981638;28;20057;-69
2022/12/10 06:47:01;;;;;;;37.63;15.43;;;;;;;-142.75;100.00;78399.44;4982761;28;20086;-68
2022/12/10 06:49:26;;;;;;;54.35;16.90;;;;;;;-142.75;100.00;78405.34;4982302;28;20022;-67
2022/12/10 06:51:52;;;;;;;47.45;14.35;;;;;;;-142.75;100.00;78411.25;4983051;28;20042;-68
2022/12/10 06:54:17;;;;;;;57.45;17.17;;;;;;;-142.75;100.00;78409.28;4982737;28;20030;-68
2022/12/10 06:56:42;;;;;;;50.35;16.77;;;;;;;-142.75;100.00;78397.44;4981890;28;20037;-69
2022/12/10 06:59:08;;;;;;;46.20;17.65;;;;;;;-142.75;100.00;78399.44;4982629;28;20038;-67
2022/12/10 07:01:33;;;;;;;63.92;16.90;;;;;;;-142.75;100.00;78405.34;4982622;28;20026;-67
2022/12/10 07:03:58;;;;;;;57.80;17.95;;;;;;;-142.75;100.00;78401.38;4982785;28;20095;-67
2022/12/10 07:06:25;;;;;;;47.45;17.42;;;;;;;-142.75;100.00;78403.38;4980541;28;20856;-67
2022/12/10 07:08:51;;;;;;;69.07;17.20;;;;;;;-142.75;100.00;78413.22;4996658;28;20080;-68
2022/12/10 07:11:20;;;;;;;51.92;18.60;;;;;;;-142.75;100.00;78427.00;5000593;28;20033;-67
2022/12/10 07:13:45;;;;;;;75.00;20.43;;;;;;;-142.75;100.00;78425.03;5002140;28;20059;-68
2022/12/10 07:16:16;;;;;;;63.78;20.55;;;;;;;-142.75;100.00;78409.28;5001582;28;20037;-70
2022/12/10 07:18:42;;;;;;;68.97;19.37;;;;;;;-142.75;100.00;78413.22;5000835;28;20057;-68
2022/12/10 07:21:21;;;;;;;69.10;19.85;;;;;;;-142.75;100.00;78399.44;5001599;28;20029;-69
2022/12/10 07:23:47;;;;;;;56.97;19.60;;;;;;;-142.75;100.00;78401.38;5000633;28;20040;-69
2022/12/10 07:26:13;;;;;;;58.65;17.80;;;;;;;-142.75;100.00;78417.16;5001536;28;20070;-67
2022/12/10 07:28:38;;;;;;;48.38;17.88;;;;;;;-142.75;100.00;78401.38;5000545;28;20057;-68
2022/12/10 07:31:06;;;;;;;56.35;17.00;;;;;;;-142.75;100.00;78393.50;5001467;28;20144;-67
2022/12/10 07:33:31;;;;;;;68.70;21.87;;;;;;;-142.75;100.00;78399.44;5001408;28;20034;-68
2022/12/10 07:35:56;;;;;;;79.05;23.50;;;;;;;-142.75;100.00;78409.28;5016970;28;20563;-68
2022/12/10 07:38:23;;;;;;;61.72;22.88;;;;;;;-142.75;100.00;78413.22;4999089;28;20124;-68
2022/12/10 07:40:49;;;;;;;95.97;22.80;;;;;;;-142.75;100.00;78432.91;5001721;28;20137;-68
2022/12/10 07:43:14;;;;;;;60.67;18.00;;;;;;;-142.75;100.00;78405.34;5001448;28;20040;-67
2022/12/10 07:45:40;;;;;;;72.93;18.25;;;;;;;-142.75;100.00;78417.16;5001194;28;20173;-70
2022/12/10 07:48:05;;;;;;;59.30;16.77;;;;;;;-142.75;100.00;78409.28;5000175;28;20064;-68
2022/12/10 07:50:30;;;;;;;60.40;17.55;;;;;;;-142.75;100.00;78415.19;5001419;28;20025;-66
2022/12/10 07:52:56;;;;;;;74.18;20.80;;;;;;;-142.75;100.00;78440.78;4999944;28;20040;-65
2022/12/10 07:55:21;;;;;;;62.03;16.45;;;;;;;-142.75;100.00;78440.78;5001010;28;20026;-66
2022/12/10 07:57:46;;;;;;;74.30;17.38;;;;;;;-142.75;100.00;78438.81;5000461;28;20127;-67
2022/12/10 08:00:12;;;;;;;58.60;15.68;;;;;;;-142.75;100.00;78450.63;5001099;28;20136;-68
2022/12/10 08:02:38;;;;;;;53.15;15.55;;;;;;;-142.75;100.00;78464.41;5001095;28;20124;-69
2022/12/10 08:05:03;;;;;;;56.28;16.98;;;;;;;-142.75;100.00;78470.31;5016243;28;20116;-66
2022/12/10 08:07:28;;;;;;;57.00;16.52;;;;;;;-142.75;100.00;78472.28;4999095;28;20766;-66
2022/12/10 08:09:54;;;;;;;63.17;16.40;;;;;;;-142.75;100.00;78486.06;4999863;28;20022;-68
2022/12/10 08:12:19;;;;;;;67.70;17.60;;;;;;;-142.75;100.00;78472.28;5001053;28;20040;-65
2022/12/10 08:14:45;;;;;;;70.85;17.35;;;;;;;-142.75;100.00;78474.25;5000814;28;20025;-68
2022/12/10 08:17:10;;;;;;;64.28;16.08;;;;;;;-142.75;100.00;78495.94;5000590;28;20030;-68
2022/12/10 08:19:35;;;;;;;94.85;16.58;;;;;;;-142.75;100.00;78493.97;4987394;28;20064;-69
2022/12/10 08:22:00;;;;;;;58.03;17.00;;;;;;;-142.75;100.00;78495.94;4981563;28;20077;-69
2022/12/10 08:24:26;;;;;;;40.30;15.50;;;;;;;-142.75;100.00;78490.00;4998649;28;20069;-66
2022/12/10 08:26:51;;;;;;;46.47;15.55;;;;;;;-142.75;100.00;78501.84;5015840;28;20121;-68
2022/12/10 08:29:16;;;;;;;43.83;14.55;;;;;;;-142.75;100.00;78490.00;4984349;28;20073;-68
2022/12/10 08:31:42;;;;;;;47.63;15.90;;;;;;;-142.75;100.00;78480.16;5000094;28;20125;-68
2022/12/10 08:34:16;;;;;;;56.67;17.08;;;;;;;-142.75;100.00;78495.94;4983104;28;20034;-67
2022/12/10 08:36:42;;;;;;;51.77;16.67;;;;;;;-142.75;100.00;78499.88;4980552;28;20038;-68
2022/12/10 08:39:10;;;;;;;57.85;16.25;;;;;;;-142.75;100.00;78507.75;5000664;28;20827;-67
2022/12/10 08:41:35;;;;;;;53.83;16.73;;;;;;;-142.75;100.00;78517.59;5001022;28;20093;-69
2022/12/10 08:44:01;;;;;;;67.95;15.80;;;;;;;-142.75;100.00;78521.53;5003570;28;20779;-67
2022/12/10 08:46:26;;;;;;;58.33;16.48;;;;;;;-142.75;100.00;78519.56;4968043;28;20054;-68
2022/12/10 08:48:52;;;;;;;42.53;13.38;;;;;;;-142.75;100.00;78551.06;4928200;28;20228;-67
2022/12/10 08:51:19;;;;;;;45.95;15.50;;;;;;;-142.75;100.00;78535.31;4909472;28;20360;-67
2022/12/10 08:53:46;;;;;;;46.60;16.07;;;;;;;-142.75;100.00;78519.56;4925002;28;20075;-66
2022/12/10 08:56:12;;;;;;;48.20;15.93;;;;;;;-142.75;100.00;78529.41;4931697;28;20137;-65
2022/12/10 08:58:38;;;;;;;46.55;15.73;;;;;;;-142.75;100.00;78501.84;4928804;28;20099;-65
2022/12/10 09:01:07;;;;;;;;;;;;;;;-142.75;100.00;78503.81;4938085;28;20033;-66
2022/12/10 09:03:33;;;;;;;49.23;16.47;;;;;;;-142.75;100.00;78513.66;4974634;28;19928;-67
2022/12/10 09:06:02;;;;;;;51.05;16.75;;;;;;;-142.75;100.00;78511.69;4984544;28;20030;-67
2022/12/10 09:08:27;;;;;;;51.77;18.70;;;;;;;-142.75;100.00;78507.75;4928013;28;20835;-66
2022/12/10 09:10:53;;;;;;;65.82;18.20;;;;;;;-142.75;100.00;78515.63;4940908;28;20025;-65
2022/12/10 09:13:19;;;;;;;59.05;16.52;;;;;;;-142.75;100.00;78523.50;4933024;28;20364;-65
2022/12/10 09:15:53;;;;;;;55.38;18.27;;;;;;;-142.75;100.00;78517.59;4939071;28;20065;-65
2022/12/10 09:18:19;;;;;;;85.57;18.27;;;;;;;-142.75;100.00;78535.31;4919049;28;20030;-67
2022/12/10 09:20:44;;;;;;;55.08;16.92;;;;;;;-142.75;100.00;78533.34;4935402;28;20040;-66
2022/12/10 09:23:10;;;;;;;53.10;16.55;;;;;;;-142.75;100.00;78547.13;4928280;28;20154;-67
2022/12/10 09:25:36;;;;;;;58.20;17.77;;;;;;;-142.75;100.00;78551.06;4942566;28;20328;-67
2022/12/10 09:28:01;;;;;;;67.95;16.42;;;;;;;-142.75;100.00;78531.38;4942832;28;20026;-67
2022/12/10 09:30:27;;;;;;;62.50;17.63;;;;;;;-142.75;100.00;78555.00;4953488;28;20509;-66
2022/12/10 09:32:52;;;;;;;54.63;17.58;;;;;;;-142.75;100.00;78533.34;4944659;28;20103;-67
2022/12/10 09:35:18;;;;;;;54.67;18.38;;;;;;;-142.75;100.00;78519.56;4931348;28;20340;-67
2022/12/10 09:37:43;;;;;;;50.30;16.73;;;;;;;-142.75;100.00;78541.22;4934649;28;20380;-66
2022/12/10 09:40:17;;;;;;;57.75;19.23;;;;;;;-142.75;100.00;78531.38;4931508;28;20340;-66
2022/12/10 09:43:36;;;;;;;59.33;20.03;;;;;;;-142.75;100.00;78549.09;4925372;28;20453;-66
2022/12/10 09:46:15;;;;;;;;;;;;;;;-142.75;100.00;78551.06;4927350;28;20429;-66
2022/12/10 09:49:10;;;;;;;55.90;15.90;;;;;;;-142.75;100.00;78558.94;4928251;28;19944;-67
2022/12/10 09:51:37;;;;;;;76.53;23.30;;;;;;;-142.75;100.00;78547.13;4932404;28;20030;-67
2022/12/10 09:54:24;;;;;;;77.10;22.23;;;;;;;-142.75;100.00;78543.19;4932793;28;20030;-67
2022/12/10 09:56:53;;;;;;;41.90;15.25;;;;;;;-142.75;100.00;78539.25;4904378;28;20568;-65
2022/12/10 09:59:20;;;;;;;60.70;22.30;;;;;;;-142.75;100.00;78537.28;4929106;28;20547;-73
2022/12/10 10:01:50;;;;;;;67.93;22.00;;;;;;;-142.75;100.00;78531.38;4931328;28;20658;-68
2022/12/10 10:04:16;;;;;;;52.40;18.10;;;;;;;-142.75;100.00;78555.00;4925776;28;20581;-67
2022/12/10 10:06:42;;;;;;;52.47;18.52;;;;;;;-142.75;100.00;78553.03;4940045;28;20033;-67
2022/12/10 10:09:13;;;;;;;85.40;20.42;;;;;;;-142.75;100.00;78558.94;4950991;28;20030;-67
2022/12/10 10:11:40;;;;;;;71.83;22.27;;;;;;;-142.75;100.00;78547.13;4938011;28;20563;-67
2022/12/10 10:14:11;;;;;;;55.80;18.73;;;;;;;-142.75;100.00;78533.34;4939731;28;20654;-67
2022/12/10 10:16:57;;;;;;;88.20;20.67;;;;;;;-142.75;100.00;78523.50;4926130;28;20060;-67
2022/12/10 10:19:30;;;;;;;65.63;19.57;;;;;;;-142.75;100.00;78531.38;4916314;28;20030;-67
2022/12/10 10:21:56;;;;;;;66.83;20.97;;;;;;;-142.75;100.00;78562.88;4937433;28;20064;-67
2022/12/10 10:24:24;;;;;;;;;;;;;;;-142.75;100.00;78525.47;4928495;28;20022;-67
2022/12/10 10:26:56;;;;;;;54.53;18.13;;;;;;;-142.75;100.00;78511.69;4936085;28;20213;-67
2022/12/10 10:29:26;;;;;;;50.50;18.13;;;;;;;-142.75;100.00;78515.63;4936204;28;20559;-67
2022/12/10 10:32:12;;;;;;;56.93;19.63;;;;;;;-142.75;100.00;78509.72;4926688;28;20053;-67
2022/12/10 10:34:40;;;;;;;50.47;15.90;;;;;;;-142.75;100.00;78519.56;4939370;28;20136;-67
2022/12/10 10:37:06;;;;;;;59.37;17.93;;;;;;;-142.75;100.00;78551.06;4933930;28;20030;-66
2022/12/10 10:39:35;;;;;;;59.83;18.70;;;;;;;-142.75;100.00;78556.97;4926470;28;20022;-67
2022/12/10 10:42:10;;;;;;;74.67;20.37;;;;;;;-142.75;100.00;78535.31;4927575;28;20044;-66
2022/12/10 10:44:38;;;;;;;76.67;21.43;;;;;;;-142.75;100.00;78539.25;4935185;28;20673;-67
2022/12/10 10:47:28;;;;;;;72.93;20.63;;;;;;;-142.75;100.00;78517.59;4928987;28;20543;-66
2022/12/10 10:49:54;;;;;;;88.33;20.20;;;;;;;-142.75;100.00;78535.31;4933127;28;20104;-67
2022/12/10 10:52:19;;;;;;;73.00;21.73;;;;;;;-142.75;100.00;78543.19;4929323;28;20419;-67
2022/12/10 10:54:46;;;;;;;74.80;20.92;;;;;;;-142.75;100.00;78533.34;4924324;28;20045;-67
2022/12/10 10:57:15;;;;;;;76.60;20.93;;;;;;;-142.75;100.00;78527.44;4938933;28;20030;-66
2022/12/10 10:59:41;;;;;;;65.20;20.70;;;;;;;-142.75;100.00;78531.38;4931293;28;20201;-70
2022/12/10 11:02:19;;;;;;;;;;;;;;;-142.75;100.00;78515.63;4942829;28;20091;-70
2022/12/10 11:04:54;;;;;;;;;;;;;;;-142.75;100.00;78507.75;4919672;28;19913;-67
2022/12/10 11:07:34;;;;;;;81.63;23.83;;;;;;;-142.75;100.00;78523.50;4929593;28;19930;-67
2022/12/10 11:10:01;;;;;;;87.33;22.20;;;;;;;-142.75;100.00;78511.69;4930096;28;20026;-68
2022/12/10 11:12:29;;;;;;;71.63;22.97;;;;;;;-142.75;100.00;78497.91;4970985;22;20045;-66